createdAt,value
2023-02-26T00:00:15.112Z,98715.94
2023-02-26T00:02:42.949Z,98717.50
2023-02-26T00:05:10.134Z,98707.56
2023-02-26T00:07:37.151Z,98718.16
2023-02-26T00:10:08.804Z,98716.16
2023-02-26T00:12:36.196Z,98704.91
2023-02-26T00:15:03.842Z,98711.16
2023-02-26T00:17:30.327Z,98708.50
2023-02-26T00:19:57.501Z,98712.84
2023-02-26T00:22:24.419Z,98731.25
2023-02-26T00:27:26.270Z,98708.69
2023-02-26T00:30:05.591Z,98705.06
2023-02-26T00:32:47.796Z,98695.59
2023-02-26T00:35:16.106Z,98676.97
2023-02-26T00:38:30.501Z,98676.44
2023-02-26T00:41:32.307Z,98691.63
2023-02-26T00:44:14.565Z,98702.94
2023-02-26T00:47:00.691Z,98700.97
2023-02-26T00:50:22.972Z,98709.81
2023-02-26T00:53:34.600Z,98703.53
2023-02-26T00:56:01.140Z,98702.97
2023-02-26T00:58:29.982Z,98711.66
2023-02-26T01:00:56.599Z,98702.47
2023-02-26T01:03:23.451Z,98702.47
2023-02-26T01:05:50.283Z,98696.31
2023-02-26T01:08:52.299Z,98691.25
2023-02-26T01:11:19.152Z,98694.81
2023-02-26T01:13:46.009Z,98694.78
2023-02-26T01:16:20.761Z,98706.34
2023-02-26T01:20:23.316Z,98720.75
2023-02-26T01:23:03.344Z,98737.13
2023-02-26T01:25:47.680Z,98725.97
2023-02-26T01:28:14.746Z,98723.16
2023-02-26T01:30:41.745Z,98706.91
2023-02-26T01:33:25.672Z,98714.09
2023-02-26T01:36:03.232Z,98714.06
2023-02-26T01:38:49.316Z,98701.53
2023-02-26T01:41:23.358Z,98702.22
2023-02-26T01:44:07.962Z,98688.84
2023-02-26T01:47:11.323Z,98699.81
2023-02-26T01:50:06.119Z,98693.31
2023-02-26T01:52:47.721Z,98687.69
2023-02-26T01:55:27.370Z,98696.16
2023-02-26T01:57:56.245Z,98700.19
2023-02-26T02:00:23.204Z,98722.19
2023-02-26T02:02:50.564Z,98735.16
2023-02-26T02:05:24.853Z,98741.94
2023-02-26T02:10:27.387Z,98743.78
2023-02-26T02:13:19.292Z,98734.44
2023-02-26T02:16:20.782Z,98721.41
2023-02-26T02:19:29.127Z,98715.28
2023-02-26T02:22:39.299Z,98705.81
2023-02-26T02:25:25.619Z,98718.50
2023-02-26T02:27:52.056Z,98725.06
2023-02-26T02:30:49.204Z,98729.84
2023-02-26T02:33:23.629Z,98723.56
2023-02-26T02:35:56.460Z,98730.59
2023-02-26T02:38:42.287Z,98749.03
2023-02-26T02:41:30.271Z,98747.91
2023-02-26T02:44:02.127Z,98744.44
2023-02-26T02:46:32.901Z,98743.94
2023-02-26T02:49:52.492Z,98754.25
2023-02-26T02:52:50.555Z,98756.44
2023-02-26T02:55:25.175Z,98763.53
2023-02-26T02:58:21.040Z,98761.13
2023-02-26T03:00:53.311Z,98763.47
2023-02-26T03:03:35.656Z,98770.75
2023-02-26T03:06:03.299Z,98762.03
2023-02-26T03:08:35.187Z,98776.66
2023-02-26T03:16:35.091Z,98777.44
2023-02-26T03:25:06.477Z,98771.75
2023-02-26T03:27:57.595Z,98776.09
2023-02-26T03:30:35.171Z,98776.69
2023-02-26T03:33:06.118Z,98794.00
2023-02-26T03:35:44.830Z,98787.50
2023-02-26T03:38:19.905Z,98790.22
2023-02-26T03:40:53.557Z,98781.31
2023-02-26T03:43:44.718Z,98765.03
2023-02-26T03:46:15.788Z,98772.00
2023-02-26T03:49:12.814Z,98796.06
2023-02-26T03:51:59.808Z,98803.38
2023-02-26T03:54:34.200Z,98804.72
2023-02-26T03:57:00.755Z,98805.25
2023-02-26T03:59:27.447Z,98822.09
2023-02-26T04:02:02.456Z,98809.91
2023-02-26T04:04:37.966Z,98789.91
2023-02-26T04:07:11.375Z,98776.06
2023-02-26T04:09:40.299Z,98785.78
2023-02-26T04:12:07.345Z,98784.22
2023-02-26T04:14:33.919Z,98795.22
2023-02-26T04:17:00.491Z,98792.66
2023-02-26T04:19:28.045Z,98793.12
2023-02-26T04:21:56.766Z,98801.78
2023-02-26T04:24:23.559Z,98804.94
2023-02-26T04:26:50.178Z,98823.09
2023-02-26T04:29:16.784Z,98837.97
2023-02-26T04:31:43.450Z,98854.22
2023-02-26T04:34:10.230Z,98857.25
2023-02-26T04:36:36.811Z,98852.41
2023-02-26T04:39:03.566Z,98857.00
2023-02-26T04:41:30.130Z,98868.91
2023-02-26T04:43:56.735Z,98871.06
2023-02-26T04:46:23.564Z,98865.66
2023-02-26T04:48:50.726Z,98869.16
2023-02-26T04:51:20.718Z,98859.72
2023-02-26T04:53:47.439Z,98855.94
2023-02-26T04:56:14.392Z,98852.16
2023-02-26T04:58:40.956Z,98850.50
2023-02-26T05:01:07.687Z,98863.78
2023-02-26T05:03:34.508Z,98858.88
2023-02-26T05:06:01.890Z,98867.81
2023-02-26T05:08:28.430Z,98865.91
2023-02-26T05:10:55.213Z,98854.84
2023-02-26T05:13:22.048Z,98855.09
2023-02-26T05:15:48.718Z,98864.59
2023-02-26T05:18:15.296Z,98868.06
2023-02-26T05:20:41.933Z,98864.00
2023-02-26T05:23:17.437Z,98864.84
2023-02-26T05:25:44.089Z,98869.44
2023-02-26T05:28:10.634Z,98872.94
2023-02-26T05:30:37.203Z,98881.59
2023-02-26T05:33:28.241Z,98894.56
2023-02-26T05:36:19.028Z,98895.34
2023-02-26T05:38:45.617Z,98900.72
2023-02-26T05:41:12.154Z,98896.31
2023-02-26T05:43:39.573Z,98884.41
2023-02-26T05:46:06.337Z,98894.50
2023-02-26T05:48:33.200Z,98916.81
2023-02-26T05:51:18.708Z,98918.19
2023-02-26T05:53:46.004Z,98934.97
2023-02-26T05:56:12.577Z,98933.66
2023-02-26T05:58:39.202Z,98940.91
2023-02-26T06:01:05.958Z,98941.31
2023-02-26T06:04:07.518Z,98933.22
2023-02-26T06:06:58.324Z,98927.25
2023-02-26T06:09:49.798Z,98932.63
2023-02-26T06:12:16.432Z,98928.59
2023-02-26T06:14:43.025Z,98938.19
2023-02-26T06:17:09.666Z,98945.25
2023-02-26T06:19:36.276Z,98947.97
2023-02-26T06:22:02.929Z,98941.13
2023-02-26T06:24:29.560Z,98953.16
2023-02-26T06:26:56.147Z,98956.66
2023-02-26T06:29:23.704Z,98962.69
2023-02-26T06:31:50.450Z,98962.56
2023-02-26T06:34:17.311Z,98961.34
2023-02-26T06:37:15.414Z,98958.75
2023-02-26T06:40:10.860Z,98955.72
2023-02-26T06:42:37.995Z,98961.53
2023-02-26T06:45:05.518Z,98967.53
2023-02-26T06:47:32.118Z,98980.00
2023-02-26T06:49:58.691Z,98979.50
2023-02-26T06:52:25.516Z,98980.91
2023-02-26T06:54:52.077Z,98972.22
2023-02-26T06:57:18.654Z,98975.13
2023-02-26T06:59:45.212Z,98969.00
2023-02-26T07:02:20.495Z,98975.62
2023-02-26T07:04:47.369Z,98972.22
2023-02-26T07:07:14.607Z,98967.97
2023-02-26T07:09:41.808Z,98971.53
2023-02-26T07:12:08.719Z,98968.78
2023-02-26T07:14:35.549Z,98982.06
2023-02-26T07:17:02.895Z,98983.44
2023-02-26T07:19:30.035Z,98967.19
2023-02-26T07:21:56.566Z,98960.50
2023-02-26T07:24:23.505Z,98961.34
2023-02-26T07:26:50.069Z,98969.75
2023-02-26T07:29:16.709Z,98972.72
2023-02-26T07:31:43.668Z,98971.94
2023-02-26T07:34:10.331Z,98965.47
2023-02-26T07:36:36.973Z,98955.47
2023-02-26T07:39:03.880Z,98983.78
2023-02-26T07:41:30.439Z,99006.38
2023-02-26T07:43:57.166Z,98993.38
2023-02-26T07:46:23.939Z,98977.66
2023-02-26T07:48:50.903Z,98984.16
2023-02-26T07:51:17.452Z,98983.88
2023-02-26T07:53:43.986Z,98995.00
2023-02-26T07:56:10.562Z,98998.78
2023-02-26T07:58:37.419Z,98996.88
2023-02-26T08:01:04.140Z,98984.72
2023-02-26T08:03:32.204Z,98999.59
2023-02-26T08:06:03.224Z,99004.41
2023-02-26T08:08:29.808Z,98993.94
2023-02-26T08:10:56.485Z,98982.69
2023-02-26T08:13:23.189Z,98995.56
2023-02-26T08:15:49.795Z,98988.94
2023-02-26T08:18:16.484Z,98988.84
2023-02-26T08:20:43.141Z,98996.59
2023-02-26T08:23:09.943Z,99009.59
2023-02-26T08:25:36.529Z,99012.56
2023-02-26T08:28:03.672Z,99006.50
2023-02-26T08:30:30.603Z,99008.13
2023-02-26T08:32:57.358Z,98999.78
2023-02-26T08:35:24.866Z,98999.97
2023-02-26T08:37:52.783Z,99000.13
2023-02-26T08:40:19.368Z,99008.56
2023-02-26T08:42:46.386Z,99012.66
2023-02-26T08:45:12.986Z,99023.56
2023-02-26T08:47:55.691Z,99020.59
2023-02-26T08:50:24.505Z,99019.19
2023-02-26T08:52:51.148Z,99036.25
2023-02-26T08:55:17.833Z,99033.81
2023-02-26T08:57:44.394Z,99037.00
2023-02-26T09:00:11.854Z,99038.59
2023-02-26T09:02:39.320Z,99038.59
2023-02-26T09:05:06.257Z,99048.19
2023-02-26T09:07:32.801Z,99049.38
2023-02-26T09:09:59.415Z,99050.22
2023-02-26T09:12:26.076Z,99054.59
2023-02-26T09:14:52.631Z,99053.72
2023-02-26T09:17:19.237Z,99059.25
2023-02-26T09:19:45.750Z,99059.25
2023-02-26T09:22:12.285Z,99065.31
2023-02-26T09:24:39.485Z,99068.34
2023-02-26T09:27:06.123Z,99075.09
2023-02-26T09:29:32.686Z,99083.91
2023-02-26T09:31:59.401Z,99077.31
2023-02-26T09:34:26.068Z,99063.31
2023-02-26T09:36:52.609Z,99088.84
2023-02-26T09:39:19.225Z,99082.78
2023-02-26T09:41:53.201Z,99079.72
2023-02-26T09:44:27.418Z,99078.91
2023-02-26T09:47:05.879Z,99079.63
2023-02-26T09:50:10.933Z,99089.62
2023-02-26T09:52:47.030Z,99092.47
2023-02-26T09:55:24.908Z,99081.41
2023-02-26T09:57:54.440Z,99077.09
2023-02-26T10:00:34.450Z,99075.50
2023-02-26T10:03:27.324Z,99077.91
2023-02-26T10:06:24.730Z,99084.59
2023-02-26T10:09:08.183Z,99089.94
2023-02-26T10:12:05.262Z,99093.53
2023-02-26T10:15:14.265Z,99106.38
2023-02-26T10:17:59.119Z,99121.19
2023-02-26T10:20:53.049Z,99130.03
2023-02-26T10:23:43.653Z,99138.53
2023-02-26T10:26:25.043Z,99139.31
2023-02-26T10:29:02.174Z,99150.53
2023-02-26T10:31:57.923Z,99152.47
2023-02-26T10:34:43.259Z,99150.06
2023-02-26T10:37:20.271Z,99161.88
2023-02-26T10:39:52.691Z,99161.31
2023-02-26T10:42:38.690Z,99163.56
2023-02-26T10:45:37.707Z,99165.28
2023-02-26T10:48:16.426Z,99170.50
2023-02-26T10:50:52.167Z,99170.34
2023-02-26T10:53:21.420Z,99168.94
2023-02-26T10:56:20.277Z,99180.00
2023-02-26T10:58:46.829Z,99178.75
2023-02-26T11:01:20.053Z,99183.56
2023-02-26T11:03:50.087Z,99190.88
2023-02-26T11:06:24.640Z,99190.63
2023-02-26T11:08:55.645Z,99199.09
2023-02-26T11:11:46.505Z,99200.53
2023-02-26T11:14:14.605Z,99194.16
2023-02-26T11:16:51.370Z,99201.91
2023-02-26T11:19:24.252Z,99184.66
2023-02-26T11:21:51.526Z,99203.53
2023-02-26T11:24:37.848Z,99199.59
2023-02-26T11:27:08.613Z,99212.06
2023-02-26T11:29:40.975Z,99205.44
2023-02-26T11:32:17.521Z,99208.87
2023-02-26T11:34:48.896Z,99206.91
2023-02-26T11:37:21.328Z,99210.06
2023-02-26T11:39:51.094Z,99212.38
2023-02-26T11:42:18.451Z,99211.56
2023-02-26T11:44:47.672Z,99216.53
2023-02-26T11:47:18.841Z,99214.63
2023-02-26T11:49:51.648Z,99211.94
2023-02-26T11:52:21.078Z,99209.09
2023-02-26T11:54:50.309Z,99216.41
2023-02-26T11:57:24.243Z,99214.22
2023-02-26T11:59:54.161Z,99213.97
2023-02-26T12:02:24.762Z,99208.84
2023-02-26T12:04:54.175Z,99219.62
2023-02-26T12:07:21.994Z,99220.66
2023-02-26T12:09:51.598Z,99227.97
2023-02-26T12:12:24.585Z,99230.50
2023-02-26T12:15:09.173Z,99233.66
2023-02-26T12:18:15.850Z,99232.50
2023-02-26T12:20:56.912Z,99230.56
2023-02-26T12:23:44.750Z,99228.44
2023-02-26T12:26:35.344Z,99234.50
2023-02-26T12:29:20.458Z,99235.41
2023-02-26T12:32:14.595Z,99254.44
2023-02-26T12:34:41.102Z,99244.78
2023-02-26T12:37:20.854Z,99238.00
2023-02-26T12:39:56.404Z,99239.03
2023-02-26T12:42:38.173Z,99243.00
2023-02-26T12:45:22.147Z,99251.12
2023-02-26T12:47:48.690Z,99255.69
2023-02-26T12:50:27.254Z,99259.38
2023-02-26T12:53:05.471Z,99258.16
2023-02-26T12:56:09.856Z,99265.00
2023-02-26T12:58:42.515Z,99256.13
2023-02-26T13:01:15.203Z,99260.72
2023-02-26T13:03:57.431Z,99259.28
2023-02-26T13:06:33.350Z,99265.69
2023-02-26T13:09:08.333Z,99266.88
2023-02-26T13:11:40.862Z,99266.19
2023-02-26T13:14:42.094Z,99268.72
2023-02-26T13:17:08.624Z,99279.44
2023-02-26T13:19:48.365Z,99277.47
2023-02-26T13:22:45.985Z,99284.75
2023-02-26T13:25:36.885Z,99285.94
2023-02-26T13:28:30.969Z,99286.78
2023-02-26T13:30:59.934Z,99283.75
2023-02-26T13:33:34.654Z,99284.37
2023-02-26T13:36:02.722Z,99290.28
2023-02-26T13:38:49.409Z,99289.56
2023-02-26T13:41:36.199Z,99290.09
2023-02-26T13:44:28.537Z,99293.31
2023-02-26T13:47:46.696Z,99298.28
2023-02-26T13:50:40.710Z,99291.00
2023-02-26T13:53:29.108Z,99301.13
2023-02-26T13:56:07.494Z,99298.69
2023-02-26T13:58:39.155Z,99293.16
2023-02-26T14:01:29.841Z,99301.78
2023-02-26T14:04:28.340Z,99310.94
2023-02-26T14:06:58.991Z,99312.38
2023-02-26T14:09:28.484Z,99321.44
2023-02-26T14:11:54.995Z,99324.75
2023-02-26T14:14:21.541Z,99331.16
2023-02-26T14:17:15.724Z,99335.09
2023-02-26T14:19:52.377Z,99333.53
2023-02-26T14:22:23.798Z,99341.34
2023-02-26T14:24:57.023Z,99346.81
2023-02-26T14:27:36.745Z,99342.41
2023-02-26T14:30:09.365Z,99344.87
2023-02-26T14:32:47.962Z,99353.81
2023-02-26T14:35:25.331Z,99346.25
2023-02-26T14:38:15.137Z,99347.59
2023-02-26T14:43:31.609Z,99354.66
2023-02-26T14:45:58.291Z,99354.16
2023-02-26T14:48:32.694Z,99353.25
2023-02-26T14:55:20.901Z,99366.38
2023-02-26T14:58:36.935Z,99366.63
2023-02-26T15:01:21.610Z,99362.44
2023-02-26T15:04:31.576Z,99372.75
2023-02-26T15:07:23.012Z,99371.53
2023-02-26T15:09:52.215Z,99381.53
2023-02-26T15:12:34.901Z,99394.00
2023-02-26T15:15:20.303Z,99398.66
2023-02-26T15:18:40.108Z,99400.53
2023-02-26T15:21:10.773Z,99401.38
2023-02-26T15:23:39.811Z,99411.56
2023-02-26T15:26:07.986Z,99417.94
2023-02-26T15:28:40.403Z,99417.22
2023-02-26T15:31:11.758Z,99431.06
2023-02-26T15:33:40.228Z,99426.44
2023-02-26T15:36:16.003Z,99434.38
2023-02-26T15:38:47.342Z,99431.81
2023-02-26T15:41:15.725Z,99439.19
2023-02-26T15:43:53.169Z,99436.59
2023-02-26T15:46:26.400Z,99432.00
2023-02-26T15:48:59.586Z,99446.88
2023-02-26T15:51:26.485Z,99446.84
2023-02-26T15:53:55.476Z,99444.97
2023-02-26T15:56:26.253Z,99451.44
2023-02-26T15:59:03.193Z,99455.34
2023-02-26T16:01:31.312Z,99457.56
2023-02-26T16:04:01.390Z,99462.41
2023-02-26T16:06:31.038Z,99465.44
2023-02-26T16:08:58.202Z,99469.25
2023-02-26T16:11:27.769Z,99470.53
2023-02-26T16:13:54.671Z,99473.97
2023-02-26T16:16:26.762Z,99485.28
2023-02-26T16:18:56.006Z,99484.94
2023-02-26T16:21:36.567Z,99486.06
2023-02-26T16:24:07.174Z,99489.25
2023-02-26T16:26:38.620Z,99501.44
2023-02-26T16:29:15.764Z,99499.75
2023-02-26T16:31:44.350Z,99501.38
2023-02-26T16:34:35.544Z,99506.13
2023-02-26T16:37:43.697Z,99510.84
2023-02-26T16:40:28.502Z,99515.66
2023-02-26T16:43:02.616Z,99513.94
2023-02-26T16:45:49.813Z,99524.53
2023-02-26T16:48:23.121Z,99522.81
2023-02-26T16:51:16.012Z,99528.72
2023-02-26T16:53:50.937Z,99529.37
2023-02-26T16:56:20.549Z,99529.31
2023-02-26T16:58:53.765Z,99518.59
2023-02-26T17:01:22.824Z,99527.53
2023-02-26T17:04:01.350Z,99531.16
2023-02-26T17:06:31.266Z,99536.87
2023-02-26T17:09:00.808Z,99540.00
2023-02-26T17:11:33.355Z,99542.66
2023-02-26T17:14:21.012Z,99546.06
2023-02-26T17:16:48.807Z,99547.38
2023-02-26T17:19:16.135Z,99547.09
2023-02-26T17:21:49.185Z,99553.94
2023-02-26T17:24:28.126Z,99557.19
2023-02-26T17:26:57.162Z,99562.91
2023-02-26T17:29:37.272Z,99561.94
2023-02-26T17:32:12.894Z,99558.19
2023-02-26T17:34:39.510Z,99562.22
2023-02-26T17:37:12.245Z,99558.28
2023-02-26T17:39:39.573Z,99561.13
2023-02-26T17:42:14.222Z,99556.34
2023-02-26T17:44:41.249Z,99558.81
2023-02-26T17:47:15.272Z,99564.19
2023-02-26T17:49:41.989Z,99563.41
2023-02-26T17:52:08.696Z,99570.34
2023-02-26T17:54:35.288Z,99570.59
2023-02-26T17:57:02.507Z,99566.34
2023-02-26T17:59:29.072Z,99569.03
2023-02-26T18:01:55.700Z,99566.25
2023-02-26T18:04:22.756Z,99566.91
2023-02-26T18:06:49.630Z,99570.50
2023-02-26T18:09:16.689Z,99572.66
2023-02-26T18:11:43.388Z,99576.94
2023-02-26T18:14:11.096Z,99575.06
2023-02-26T18:16:40.783Z,99575.63
2023-02-26T18:19:08.249Z,99578.34
2023-02-26T18:21:35.214Z,99579.44
2023-02-26T18:24:01.927Z,99581.84
2023-02-26T18:26:32.624Z,99582.66
2023-02-26T18:28:59.196Z,99580.47
2023-02-26T18:31:34.673Z,99582.06
2023-02-26T18:34:03.373Z,99584.50
2023-02-26T18:36:35.529Z,99585.72
2023-02-26T18:39:02.541Z,99587.91
2023-02-26T18:41:30.986Z,99590.66
2023-02-26T18:43:57.561Z,99593.12
2023-02-26T18:46:25.226Z,99594.31
2023-02-26T18:48:51.902Z,99592.31
2023-02-26T18:51:18.579Z,99604.37
2023-02-26T18:53:45.421Z,99593.69
2023-02-26T18:56:12.007Z,99600.62
2023-02-26T18:58:40.419Z,99603.09
2023-02-26T19:01:07.330Z,99603.91
2023-02-26T19:03:33.955Z,99604.19
2023-02-26T19:06:03.174Z,99614.47
2023-02-26T19:08:30.431Z,99616.09
2023-02-26T19:10:58.165Z,99623.19
2023-02-26T19:13:25.210Z,99620.37
2023-02-26T19:15:51.923Z,99619.91
2023-02-26T19:18:19.038Z,99619.44
2023-02-26T19:20:45.899Z,99621.59
2023-02-26T19:23:12.612Z,99621.78
2023-02-26T19:25:41.337Z,99620.63
2023-02-26T19:28:09.079Z,99637.00
2023-02-26T19:30:36.256Z,99643.16
2023-02-26T19:33:02.957Z,99644.13
2023-02-26T19:35:30.658Z,99637.72
2023-02-26T19:37:59.708Z,99643.50
2023-02-26T19:40:28.165Z,99649.69
2023-02-26T19:42:54.744Z,99653.44
2023-02-26T19:45:24.038Z,99655.78
2023-02-26T19:47:50.636Z,99657.84
2023-02-26T19:50:19.277Z,99664.97
2023-02-26T19:52:45.935Z,99674.13
2023-02-26T19:55:14.508Z,99671.91
2023-02-26T19:57:41.184Z,99679.81
2023-02-26T20:00:08.581Z,99686.53
2023-02-26T20:02:35.199Z,99688.09
2023-02-26T20:05:03.713Z,99683.94
2023-02-26T20:07:30.331Z,99683.25
2023-02-26T20:09:57.382Z,99681.69
2023-02-26T20:12:23.906Z,99680.16
2023-02-26T20:14:50.530Z,99684.94
2023-02-26T20:17:17.082Z,99691.47
2023-02-26T20:19:44.730Z,99695.47
2023-02-26T20:22:11.737Z,99702.25
2023-02-26T20:24:38.476Z,99703.19
2023-02-26T20:27:07.089Z,99702.41
2023-02-26T20:29:33.698Z,99707.72
2023-02-26T20:32:00.463Z,99702.47
2023-02-26T20:34:27.289Z,99715.81
2023-02-26T20:36:55.744Z,99720.13
2023-02-26T20:39:24.541Z,99713.63
2023-02-26T20:41:51.150Z,99726.56
2023-02-26T20:44:18.005Z,99731.69
2023-02-26T20:46:44.667Z,99734.72
2023-02-26T20:49:11.788Z,99735.53
2023-02-26T20:51:40.878Z,99744.72
2023-02-26T20:54:08.806Z,99748.13
2023-02-26T20:56:35.500Z,99744.53
2023-02-26T20:59:02.208Z,99754.28
2023-02-26T21:01:35.426Z,99753.28
2023-02-26T21:04:07.445Z,99759.00
2023-02-26T21:06:35.037Z,99754.72
2023-02-26T21:09:02.135Z,99768.59
2023-02-26T21:11:34.550Z,99769.75
2023-02-26T21:14:03.626Z,99774.34
2023-02-26T21:16:30.590Z,99778.91
2023-02-26T21:19:00.228Z,99776.44
2023-02-26T21:21:26.931Z,99778.03
2023-02-26T21:23:53.741Z,99766.50
2023-02-26T21:26:21.273Z,99762.72
2023-02-26T21:28:48.642Z,99750.22
2023-02-26T21:31:20.336Z,99759.00
2023-02-26T21:33:47.007Z,99766.16
2023-02-26T21:36:14.481Z,99766.81
2023-02-26T21:38:42.156Z,99779.72
2023-02-26T21:41:08.900Z,99778.59
2023-02-26T21:43:35.559Z,99787.72
2023-02-26T21:46:02.243Z,99785.44
2023-02-26T21:48:28.898Z,99783.25
2023-02-26T21:50:56.630Z,99781.34
2023-02-26T21:53:23.957Z,99785.72
2023-02-26T21:55:50.579Z,99781.66
2023-02-26T21:58:17.158Z,99785.44
2023-02-26T22:00:44.327Z,99782.09
2023-02-26T22:03:11.439Z,99781.81
2023-02-26T22:05:38.204Z,99793.19
2023-02-26T22:08:05.269Z,99782.78
2023-02-26T22:10:31.942Z,99789.97
2023-02-26T22:12:58.598Z,99785.78
2023-02-26T22:15:25.221Z,99789.91
2023-02-26T22:17:51.824Z,99802.16
2023-02-26T22:20:18.605Z,99792.59
2023-02-26T22:22:45.204Z,99795.31
2023-02-26T22:33:39.021Z,99802.87
2023-02-26T22:47:02.686Z,99808.31
2023-02-26T22:49:29.335Z,99811.03
2023-02-26T22:51:56.070Z,99817.28
2023-02-26T22:54:22.639Z,99818.66
2023-02-26T22:56:49.252Z,99813.97
2023-02-26T22:59:16.360Z,99815.00
2023-02-26T23:01:43.339Z,99813.44
2023-02-26T23:04:10.763Z,99819.31
2023-02-26T23:06:37.541Z,99815.47
2023-02-26T23:09:05.884Z,99815.59
2023-02-26T23:11:32.757Z,99830.72
2023-02-26T23:13:59.358Z,99828.00
2023-02-26T23:16:46.160Z,99836.44
2023-02-26T23:19:57.586Z,99833.63
2023-02-26T23:22:24.334Z,99846.78
2023-02-26T23:24:50.948Z,99845.47
2023-02-26T23:27:17.945Z,99852.38
2023-02-26T23:29:45.798Z,99855.44
2023-02-26T23:32:13.123Z,99853.22
2023-02-26T23:35:07.941Z,99859.28
2023-02-26T23:37:34.609Z,99859.91
2023-02-26T23:40:01.354Z,99857.06
2023-02-26T23:42:27.944Z,99860.19
2023-02-26T23:45:48.150Z,99857.41
2023-02-26T23:48:52.652Z,99862.47
2023-02-26T23:51:19.235Z,99872.34
2023-02-26T23:53:45.847Z,99866.84
2023-02-26T23:56:12.814Z,99878.00
2023-02-26T23:58:39.367Z,99886.53
